Time;durP1;ratioP1;P1;durP2;ratioP2;P2;SDS_P1;SDS_P2;PMS_P1;PMS_P2;Temp;Humidity;BMP_temperature;BMP_pressure;BME280_temperature;BME280_humidity;BME280_pressure;Samples;Min_cycle;Max_cycle;Signal;HPM_P1;HPM_P2
2021/08/01 00:01:45;;;;;;;21.02;17.27;;;;;;;18.50;75.57;99541.80;1723997;82;27259;-64
2021/08/01 00:04:13;;;;;;;24.40;17.42;;;;;;;18.48;75.48;99542.95;1701265;83;25814;-63
2021/08/01 00:06:40;;;;;;;24.20;17.62;;;;;;;18.51;75.67;99546.09;1724022;82;25716;-63
2021/08/01 00:09:07;;;;;;;22.32;18.10;;;;;;;18.50;75.61;99543.17;1724040;82;26585;-63
2021/08/01 00:11:34;;;;;;;21.73;16.80;;;;;;;18.48;75.54;99543.55;1724108;83;25831;-63
2021/08/01 00:14:02;;;;;;;19.25;16.87;;;;;;;18.47;75.52;99541.41;1724002;83;28424;-64
2021/08/01 00:16:29;;;;;;;24.52;17.57;;;;;;;18.46;75.78;99541.78;1724003;82;25855;-64
2021/08/01 00:18:59;;;;;;;27.82;16.50;;;;;;;18.42;75.84;99534.91;1724046;83;25677;-66
2021/08/01 00:21:26;;;;;;;86.95;80.67;;;;;;;18.41;75.50;99542.14;1723984;83;26393;-62
2021/08/01 00:23:53;;;;;;;87.92;81.82;;;;;;;18.38;75.84;99543.67;1724112;82;25680;-63
2021/08/01 00:26:19;;;;;;;89.67;83.37;;;;;;;18.39;75.68;99541.70;1724120;82;27402;-63
2021/08/01 00:28:47;;;;;;;88.45;82.05;;;;;;;18.38;75.73;99542.89;1723970;82;25743;-64
2021/08/01 00:31:14;;;;;;;88.50;82.20;;;;;;;18.39;75.76;99546.63;1724159;83;25849;-63
2021/08/01 00:33:42;;;;;;;87.78;81.50;;;;;;;18.37;75.43;99539.94;1723967;82;26147;-63
2021/08/01 00:36:09;;;;;;;86.40;80.47;;;;;;;18.37;75.42;99542.67;1724093;82;25766;-63
2021/08/01 00:38:37;;;;;;;87.55;81.22;;;;;;;18.37;75.12;99542.67;1724036;83;28048;-64
2021/08/01 00:41:04;;;;;;;88.78;82.67;;;;;;;18.36;75.09;99547.97;1723912;82;25746;-63
2021/08/01 00:43:32;;;;;;;89.52;83.07;;;;;;;18.34;75.15;99549.71;1724075;82;25993;-64
2021/08/01 00:46:02;;;;;;;90.70;84.37;;;;;;;18.31;75.26;99555.94;1724179;83;25810;-63
2021/08/01 00:48:29;;;;;;;23.45;20.37;;;;;;;18.29;75.64;99555.54;1724156;83;25703;-62
2021/08/01 00:50:56;;;;;;;23.25;17.48;;;;;;;18.27;75.70;99555.91;1724277;83;27343;-63
2021/08/01 00:53:23;;;;;;;26.60;17.65;;;;;;;18.21;75.41;99558.78;1724126;83;25672;-63
2021/08/01 00:55:50;;;;;;;22.82;17.80;;;;;;;18.20;75.69;99557.80;1724156;83;25692;-63
2021/08/01 00:58:17;;;;;;;89.62;83.15;;;;;;;18.17;75.76;99552.51;1724025;83;25772;-65
2021/08/01 01:03:46;;;;;;;89.10;82.72;;;;;;;18.07;75.73;99556.72;1719022;83;28443;-63
2021/08/01 01:06:24;;;;;;;79.27;73.28;;;;;;;18.01;76.03;99567.79;1719113;83;25734;-63
2021/08/01 01:09:13;;;;;;;26.30;19.02;;;;;;;18.01;76.52;99569.75;1721568;83;25809;-63
2021/08/01 01:11:43;;;;;;;27.48;19.05;;;;;;;17.93;76.45;99573.02;1719245;83;34907;-63
2021/08/01 01:14:15;;;;;;;21.65;16.70;;;;;;;17.89;76.71;99570.25;1719025;83;25680;-64
2021/08/01 01:16:46;;;;;;;28.65;18.20;;;;;;;17.85;76.97;99568.59;1718951;83;27387;-64
2021/08/01 01:19:25;;;;;;;88.82;82.45;;;;;;;17.82;77.06;99573.45;1719042;83;25748;-63
2021/08/01 01:22:05;;;;;;;88.33;81.95;;;;;;;17.79;77.00;99578.30;1718167;83;25751;-63
2021/08/01 01:24:35;;;;;;;88.30;82.00;;;;;;;17.75;77.13;99574.16;1718968;83;25764;-64
2021/08/01 01:27:15;;;;;;;77.20;71.37;;;;;;;17.73;77.13;99570.43;1718861;83;25761;-63
2021/08/01 01:29:58;;;;;;;21.17;17.75;;;;;;;17.74;77.08;99577.48;1719042;83;28485;-64
2021/08/01 01:32:39;;;;;;;26.40;18.32;;;;;;;17.72;77.17;99585.28;1718855;83;27176;-64
2021/08/01 01:35:18;;;;;;;89.67;82.95;;;;;;;17.69;77.38;99583.84;1719108;83;25745;-64
2021/08/01 01:37:55;;;;;;;88.90;82.37;;;;;;;17.63;77.46;99571.69;1719059;83;25759;-64
2021/08/01 01:40:23;;;;;;;87.92;81.65;;;;;;;17.61;77.51;99574.02;1719062;83;25690;-64
2021/08/01 01:42:53;;;;;;;86.40;80.32;;;;;;;17.58;77.59;99570.66;1698628;83;27343;-64
2021/08/01 01:45:21;;;;;;;88.82;82.42;;;;;;;17.61;77.64;99574.02;1718880;83;26395;-63
2021/08/01 01:47:50;;;;;;;87.20;80.90;;;;;;;17.62;77.70;99566.00;1722887;83;25776;-64
2021/08/01 01:50:18;;;;;;;88.85;82.37;;;;;;;17.63;77.66;99566.22;1719062;83;25710;-63
2021/08/01 01:52:51;;;;;;;88.10;81.90;;;;;;;17.65;77.52;99565.27;1722842;83;25719;-63
2021/08/01 01:55:20;;;;;;;87.88;81.37;;;;;;;17.65;77.42;99561.94;1718994;83;27323;-63
2021/08/01 01:57:47;;;;;;;87.95;81.55;;;;;;;17.66;77.39;99555.31;1719036;83;25720;-63
2021/08/01 02:00:16;;;;;;;88.22;82.02;;;;;;;17.69;77.30;99561.97;1718854;83;26404;-63
2021/08/01 02:02:44;;;;;;;88.25;82.08;;;;;;;17.70;77.32;99572.53;1719068;83;25732;-63
2021/08/01 02:05:11;;;;;;;87.70;81.60;;;;;;;17.73;77.23;99580.59;1719028;83;25921;-63
2021/08/01 02:07:39;;;;;;;86.67;80.50;;;;;;;17.74;77.27;99580.78;1718948;83;27431;-63
2021/08/01 02:10:26;;;;;;;35.73;32.40;;;;;;;17.75;77.23;99578.27;1718904;83;25792;-63
2021/08/01 02:12:56;;;;;;;21.90;15.38;;;;;;;17.79;77.23;99582.40;1718992;83;25735;-63
2021/08/01 02:15:31;;;;;;;33.40;30.12;;;;;;;17.79;77.22;99577.70;1718993;83;26257;-63
2021/08/01 02:18:10;;;;;;;21.10;16.62;;;;;;;17.80;77.01;99583.98;1719054;83;25747;-63
2021/08/01 02:20:44;;;;;;;20.73;15.30;;;;;;;17.79;77.15;99585.91;1719145;83;27398;-63
2021/08/01 02:23:24;;;;;;;17.98;14.87;;;;;;;17.77;77.06;99584.73;1718900;83;26093;-63
2021/08/01 02:25:54;;;;;;;21.68;15.28;;;;;;;17.75;77.05;99578.27;1714645;83;25748;-63
2021/08/01 02:28:23;;;;;;;87.78;81.55;;;;;;;17.73;76.96;99576.48;1719029;83;26366;-63
2021/08/01 02:30:57;;;;;;;89.95;83.47;;;;;;;17.71;77.17;99576.86;1718968;83;25713;-63
2021/08/01 02:33:26;;;;;;;86.32;80.40;;;;;;;17.72;77.04;99574.91;1718854;83;27521;-63
2021/08/01 02:35:50;;;;;;;84.62;78.78;;;;;;;17.72;76.85;99569.44;1718975;83;25768;-64
2021/08/01 02:38:18;;;;;;;86.37;80.28;;;;;;;17.71;76.77;99574.72;1718960;83;25804;-63
2021/08/01 02:40:46;;;;;;;87.47;81.40;;;;;;;17.69;76.77;99569.61;1718905;83;26190;-64
2021/08/01 02:43:17;;;;;;;88.75;82.25;;;;;;;17.69;76.57;99567.44;1718939;83;25791;-64
2021/08/01 02:45:46;;;;;;;86.67;80.53;;;;;;;17.68;76.48;99567.25;1719057;83;27331;-64
2021/08/01 02:48:16;;;;;;;88.42;82.08;;;;;;;17.67;76.29;99568.41;1719013;83;25629;-64
2021/08/01 02:50:47;;;;;;;85.90;80.03;;;;;;;17.65;76.39;99566.04;1718943;83;25752;-64
2021/08/01 02:53:17;;;;;;;86.50;80.57;;;;;;;17.65;76.33;99563.89;1718957;83;26300;-64
2021/08/01 02:55:48;;;;;;;85.65;79.77;;;;;;;17.63;76.42;99568.37;1718982;83;25764;-64
2021/08/01 02:58:17;;;;;;;85.65;79.42;;;;;;;17.62;76.42;99568.18;1718961;83;27260;-62
2021/08/01 03:00:47;;;;;;;87.22;81.02;;;;;;;17.61;76.44;99567.19;1718750;83;25715;-63
2021/08/01 03:03:16;;;;;;;85.62;79.82;;;;;;;17.59;76.33;99566.75;1718881;83;25644;-63
2021/08/01 03:05:44;;;;;;;86.17;80.45;;;;;;;17.57;76.32;99566.34;1719020;83;25769;-63
2021/08/01 03:08:13;;;;;;;85.90;80.12;;;;;;;17.54;76.34;99563.20;1718900;83;25798;-63
2021/08/01 03:10:46;;;;;;;85.05;78.92;;;;;;;17.53;76.39;99569.04;1719016;83;27176;-63
2021/08/01 03:13:13;;;;;;;84.30;78.52;;;;;;;17.51;76.39;99571.36;1717599;83;25948;-63
2021/08/01 03:15:42;;;;;;;86.70;80.75;;;;;;;17.50;76.43;99578.78;1718933;83;25729;-63
2021/08/01 03:18:08;;;;;;;84.32;78.65;;;;;;;17.49;76.37;99576.42;1719157;83;26191;-63
2021/08/01 03:20:35;;;;;;;88.58;82.27;;;;;;;17.47;76.46;99579.53;1718899;83;26374;-63
2021/08/01 03:23:01;;;;;;;85.97;79.87;;;;;;;17.48;76.56;99576.20;1718920;83;27333;-63
2021/08/01 03:25:28;;;;;;;85.92;79.70;;;;;;;17.47;76.59;99578.16;1718757;83;25838;-63
2021/08/01 03:27:54;;;;;;;86.78;80.85;;;;;;;17.45;76.46;99577.75;1718893;83;25645;-63
2021/08/01 03:30:22;;;;;;;86.53;80.57;;;;;;;17.45;76.49;99576.94;1718861;83;25725;-63
2021/08/01 03:32:48;;;;;;;87.57;81.47;;;;;;;17.44;76.44;99583.00;1718913;83;25821;-63
2021/08/01 03:35:15;;;;;;;88.58;82.27;;;;;;;17.43;76.39;99585.52;1718971;83;27352;-63
2021/08/01 03:37:41;;;;;;;86.85;80.70;;;;;;;17.43;76.34;99581.41;1698474;83;25766;-63
2021/08/01 03:40:09;;;;;;;84.05;78.12;;;;;;;17.43;76.28;99575.17;1718895;83;26413;-63
2021/08/01 03:42:36;;;;;;;86.42;80.28;;;;;;;17.42;76.21;99577.13;1698470;83;25758;-63
2021/08/01 03:45:04;;;;;;;85.28;79.42;;;;;;;17.42;76.25;99584.52;1718885;83;25625;-63
2021/08/01 03:47:33;;;;;;;87.35;80.95;;;;;;;17.41;76.44;99590.57;1718801;83;27579;-63
2021/08/01 03:50:00;;;;;;;85.35;79.42;;;;;;;17.42;76.58;99586.69;1718758;83;25725;-63
2021/08/01 03:52:26;;;;;;;84.50;78.65;;;;;;;17.43;76.65;99582.78;1718888;83;25733;-63
2021/08/01 03:54:53;;;;;;;86.12;80.12;;;;;;;17.43;76.72;99586.88;1698624;83;25914;-63
2021/08/01 03:57:19;;;;;;;85.90;79.97;;;;;;;17.46;76.80;99582.63;1718905;83;25671;-63
2021/08/01 03:59:46;;;;;;;84.20;78.45;;;;;;;17.47;76.79;99582.27;1719774;83;27379;-64
2021/08/01 04:02:12;;;;;;;84.72;79.03;;;;;;;17.49;76.78;99581.30;1724380;82;25679;-64
2021/08/01 04:04:40;;;;;;;83.30;77.42;;;;;;;17.51;76.82;99586.40;1724610;83;25826;-63
2021/08/01 04:07:07;;;;;;;84.52;78.67;;;;;;;17.52;76.69;99585.22;1724507;83;26301;-63
2021/08/01 04:09:34;;;;;;;83.95;78.07;;;;;;;17.54;76.79;99585.07;1724575;83;25698;-63
2021/08/01 04:12:00;;;;;;;84.20;78.22;;;;;;;17.56;76.75;99586.06;1724604;83;27309;-63
2021/08/01 04:14:31;;;;;;;84.32;78.33;;;;;;;17.58;76.75;99581.59;1724449;83;25986;-63
2021/08/01 04:16:57;;;;;;;82.75;77.17;;;;;;;17.61;76.77;99586.33;1724482;82;25639;-63
2021/08/01 04:19:23;;;;;;;83.03;77.32;;;;;;;17.65;76.85;99584.41;1724522;83;26207;-62
2021/08/01 04:21:50;;;;;;;86.35;80.10;;;;;;;17.67;76.86;99578.78;1724536;83;25832;-63
2021/08/01 04:24:17;;;;;;;85.38;79.37;;;;;;;17.70;76.85;99583.48;1724590;83;28043;-63
2021/08/01 04:26:44;;;;;;;83.40;77.72;;;;;;;17.73;76.99;99584.69;1724505;83;25736;-64
2021/08/01 04:29:12;;;;;;;85.87;79.65;;;;;;;17.78;77.10;99588.45;1724457;83;25858;-64
2021/08/01 04:31:43;;;;;;;84.97;79.17;;;;;;;17.82;77.09;99583.02;1724843;83;25692;-63
2021/08/01 04:34:11;;;;;;;86.17;80.35;;;;;;;17.86;77.13;99586.56;1728820;82;25755;-63
2021/08/01 04:36:38;;;;;;;87.35;80.92;;;;;;;17.89;77.06;99596.80;1724502;83;27360;-63
2021/08/01 04:39:05;;;;;;;85.77;79.45;;;;;;;17.95;77.29;99588.47;1724572;83;25732;-61
2021/08/01 04:41:32;;;;;;;84.92;78.85;;;;;;;18.02;77.29;99601.43;1724608;83;25784;-63
2021/08/01 04:44:00;;;;;;;84.70;78.70;;;;;;;18.06;76.90;99602.24;1724483;83;26186;-63
2021/08/01 04:46:27;;;;;;;86.15;80.10;;;;;;;18.10;76.46;99605.81;1724568;83;25656;-63
2021/08/01 04:48:53;;;;;;;85.72;79.87;;;;;;;18.13;76.37;99601.52;1724511;83;27390;-63
2021/08/01 04:51:20;;;;;;;85.97;79.67;;;;;;;18.19;76.42;99609.61;1724427;83;25793;-63
2021/08/01 04:53:47;;;;;;;84.80;79.00;;;;;;;18.23;76.55;99613.93;1724548;83;25736;-64
2021/08/01 04:56:14;;;;;;;83.42;77.92;;;;;;;18.29;76.08;99607.55;1724586;83;26382;-64
2021/08/01 04:58:41;;;;;;;83.03;77.32;;;;;;;18.35;76.37;99615.59;1724566;83;25684;-63
2021/08/01 05:01:17;;;;;;;82.85;77.32;;;;;;;18.43;76.41;99607.66;1724128;83;27916;-63
2021/08/01 05:03:45;;;;;;;84.52;78.57;;;;;;;18.50;76.29;99608.30;1701491;83;25703;-63
2021/08/01 05:06:12;;;;;;;84.10;78.10;;;;;;;18.60;76.46;99609.55;1724051;83;25779;-63
2021/08/01 05:08:40;;;;;;;84.30;78.37;;;;;;;18.66;76.15;99599.23;1723965;83;25748;-63
2021/08/01 05:11:07;;;;;;;83.65;78.02;;;;;;;18.75;76.20;99593.42;1723992;83;25700;-64
2021/08/01 05:13:34;;;;;;;83.65;77.67;;;;;;;18.83;76.35;99595.08;1724029;82;27694;-64
2021/08/01 05:16:00;;;;;;;83.95;78.25;;;;;;;18.91;76.36;99584.16;1723941;82;25685;-64
2021/08/01 05:18:27;;;;;;;83.40;77.72;;;;;;;19.01;76.25;99586.17;1723988;83;25835;-64
2021/08/01 05:20:54;;;;;;;83.17;77.27;;;;;;;19.07;76.20;99585.21;1723929;82;25920;-63
2021/08/01 05:23:21;;;;;;;81.75;76.15;;;;;;;19.14;76.17;99583.90;1724055;83;25696;-64
2021/08/01 05:25:48;;;;;;;81.15;75.75;;;;;;;19.22;76.19;99588.22;1724004;83;27347;-64
2021/08/01 05:28:14;;;;;;;83.12;77.55;;;;;;;19.29;75.69;99597.87;1723931;83;25817;-63
2021/08/01 05:30:42;;;;;;;82.62;77.17;;;;;;;19.32;74.93;99602.56;1723830;82;25748;-63
2021/08/01 05:33:10;;;;;;;82.12;76.25;;;;;;;19.36;75.06;99612.98;1723238;83;25730;-63
2021/08/01 05:35:38;;;;;;;81.87;76.33;;;;;;;19.43;75.14;99609.48;1669064;84;25967;-63
2021/08/01 05:38:06;;;;;;;83.60;78.07;;;;;;;19.49;75.18;99614.78;1718474;83;27328;-63
2021/08/01 05:40:34;;;;;;;82.88;77.37;;;;;;;19.58;75.09;99624.02;1689416;83;26092;-63
2021/08/01 05:43:01;;;;;;;81.42;75.92;;;;;;;19.64;74.73;99624.45;1690889;84;25699;-63
2021/08/01 05:45:29;;;;;;;82.17;76.47;;;;;;;19.71;74.67;99630.73;1668252;84;26614;-64
2021/08/01 05:47:56;;;;;;;81.00;75.50;;;;;;;19.86;75.03;99628.85;1723318;83;26393;-63
2021/08/01 05:50:23;;;;;;;79.85;74.65;;;;;;;19.99;74.79;99638.09;1690130;83;28053;-63
2021/08/01 05:52:50;;;;;;;80.85;75.57;;;;;;;20.11;74.37;99644.02;1690790;84;25888;-63
2021/08/01 05:55:18;;;;;;;81.37;75.62;;;;;;;20.26;74.26;99633.84;1718149;83;25744;-64
2021/08/01 05:57:45;;;;;;;80.38;75.20;;;;;;;20.49;74.11;99623.05;1718183;83;25774;-63
2021/08/01 06:00:14;;;;;;;81.28;76.17;;;;;;;20.72;73.96;99622.66;1689504;84;25838;-63
2021/08/01 06:02:41;;;;;;;80.75;75.28;;;;;;;20.87;73.19;99620.13;1671006;85;27379;-64
2021/08/01 06:05:08;;;;;;;80.28;74.35;;;;;;;21.04;72.68;99617.72;1653507;86;25910;-63
2021/08/01 06:07:35;;;;;;;78.70;73.80;;;;;;;21.18;72.10;99614.14;1634590;86;25746;-64
2021/08/01 06:10:04;;;;;;;13.53;9.05;;;;;;;21.37;71.17;99610.95;1653489;86;26377;-64
2021/08/01 06:12:30;;;;;;;11.40;8.50;;;;;;;21.63;71.15;99611.65;1653868;86;25723;-64
2021/08/01 06:14:59;;;;;;;12.00;8.48;;;;;;;21.86;69.95;99615.84;1670874;85;27372;-63
2021/08/01 06:17:25;;;;;;;12.93;8.15;;;;;;;22.05;69.61;99614.55;1670819;85;25693;-64
2021/08/01 06:19:57;;;;;;;19.17;8.88;;;;;;;22.23;68.13;99614.44;1653576;86;25763;-64
2021/08/01 06:22:25;;;;;;;13.90;8.45;;;;;;;22.41;68.27;99608.23;1670816;85;26200;-64
2021/08/01 06:24:52;;;;;;;79.70;73.95;;;;;;;22.64;67.91;99606.24;1670948;85;25746;-63
2021/08/01 06:27:19;;;;;;;76.30;71.47;;;;;;;22.84;67.67;99611.97;1653561;86;28345;-64
2021/08/01 06:29:49;;;;;;;74.37;69.77;;;;;;;23.06;66.40;99610.41;1653434;86;25821;-64
2021/08/01 06:32:15;;;;;;;72.87;68.55;;;;;;;23.27;65.78;99623.94;1653514;86;25788;-65
2021/08/01 06:34:42;;;;;;;76.92;72.05;;;;;;;23.50;64.20;99616.38;1670825;85;25637;-63
2021/08/01 06:37:09;;;;;;;76.37;71.82;;;;;;;23.77;63.68;99621.17;1670891;85;25736;-63
2021/08/01 06:39:35;;;;;;;72.78;68.28;;;;;;;24.00;62.05;99629.36;1670922;85;28034;-63
2021/08/01 06:42:03;;;;;;;71.50;67.22;;;;;;;24.08;60.04;99630.82;1670719;85;26441;-63
2021/08/01 06:44:30;;;;;;;71.47;67.00;;;;;;;24.15;60.25;99632.70;1629285;85;25983;-63
2021/08/01 06:47:02;;;;;;;71.55;67.35;;;;;;;24.23;59.50;99628.63;1670843;85;25747;-64
2021/08/01 06:49:30;;;;;;;74.92;70.28;;;;;;;24.41;59.40;99630.49;1643280;85;25831;-63
2021/08/01 06:52:00;;;;;;;70.85;66.45;;;;;;;24.68;59.25;99627.53;1670868;85;27306;-63
2021/08/01 06:54:26;;;;;;;72.27;67.75;;;;;;;24.89;57.46;99625.78;1670843;85;25700;-63
2021/08/01 06:56:56;;;;;;;9.07;4.77;;;;;;;25.06;56.17;99629.39;1670668;85;25781;-63
2021/08/01 06:59:22;;;;;;;5.62;4.78;;;;;;;25.33;55.95;99627.14;1670799;85;25787;-63
2021/08/01 07:01:49;;;;;;;48.58;44.23;;;;;;;25.62;55.95;99625.17;1679470;85;25721;-64
2021/08/01 07:04:16;;;;;;;16.77;10.30;;;;;;;25.86;54.70;99632.17;1727987;83;28353;-64
2021/08/01 07:06:42;;;;;;;8.35;4.95;;;;;;;26.16;54.32;99630.94;1685483;84;25708;-63
2021/08/01 07:09:09;;;;;;;5.95;4.00;;;;;;;26.45;53.31;99626.25;1656390;86;25780;-64
2021/08/01 07:11:35;;;;;;;9.13;4.00;;;;;;;26.74;52.35;99618.63;1727901;83;25825;-63
2021/08/01 07:14:02;;;;;;;7.22;4.60;;;;;;;27.00;52.00;99620.13;1705111;83;25860;-63
2021/08/01 07:16:29;;;;;;;7.85;4.92;;;;;;;27.18;51.00;99624.58;1727943;83;27412;-63
2021/08/01 07:18:56;;;;;;;10.80;4.58;;;;;;;27.43;50.29;99624.53;1684770;84;26448;-63
2021/08/01 07:21:23;;;;;;;9.25;4.33;;;;;;;27.68;49.45;99625.78;1727896;83;25770;-63
2021/08/01 07:23:49;;;;;;;8.15;7.30;;;;;;;27.91;49.39;99626.09;1727969;83;25746;-63
2021/08/01 07:26:17;;;;;;;5.90;4.10;;;;;;;28.07;48.45;99627.37;1727969;83;25730;-63
2021/08/01 07:28:44;;;;;;;6.35;3.37;;;;;;;28.24;48.19;99628.03;1705093;84;27339;-63
2021/08/01 07:31:10;;;;;;;4.62;3.60;;;;;;;28.25;46.92;99625.42;1727875;83;25715;-62
2021/08/01 07:33:37;;;;;;;52.45;49.63;;;;;;;28.43;46.73;99619.89;1727930;83;26028;-63
2021/08/01 07:36:04;;;;;;;64.40;60.90;;;;;;;28.64;46.27;99621.98;1685557;84;25704;-62
2021/08/01 07:38:31;;;;;;;21.62;20.10;;;;;;;28.94;45.88;99618.98;1641694;85;25774;-63
2021/08/01 07:40:58;;;;;;;5.90;3.17;;;;;;;29.15;45.23;99621.61;1727869;83;27344;-63
2021/08/01 07:43:25;;;;;;;5.22;2.58;;;;;;;29.24;44.54;99626.67;1704985;83;25826;-63
2021/08/01 07:45:51;;;;;;;11.33;3.30;;;;;;;29.33;44.35;99622.39;1727863;83;25739;-62
2021/08/01 07:48:18;;;;;;;5.30;3.17;;;;;;;29.40;43.53;99619.34;1727840;83;25683;-63
2021/08/01 07:50:44;;;;;;;7.70;3.05;;;;;;;29.45;43.26;99619.37;1727983;83;25716;-63
2021/08/01 07:53:11;;;;;;;63.38;59.98;;;;;;;29.51;41.91;99628.08;1684849;84;29531;-63
2021/08/01 07:55:38;;;;;;;64.85;61.30;;;;;;;29.57;41.03;99623.45;1685467;85;25716;-63
2021/08/01 07:58:05;;;;;;;64.40;61.10;;;;;;;29.84;41.49;99617.89;1727921;83;25882;-63
2021/08/01 08:00:31;;;;;;;62.25;59.00;;;;;;;30.21;41.23;99607.50;1727519;83;25717;-63
2021/08/01 08:02:58;;;;;;;64.00;60.60;;;;;;;30.48;40.74;99609.59;1715898;82;25759;-63
2021/08/01 08:05:24;;;;;;;64.05;60.35;;;;;;;30.74;40.04;99593.33;1705207;84;27421;-63
2021/08/01 08:07:51;;;;;;;64.60;61.20;;;;;;;31.06;39.45;99605.14;1670814;85;25776;-63
2021/08/01 08:10:18;;;;;;;62.98;59.10;;;;;;;31.19;39.19;99595.95;1653448;86;25786;-63
2021/08/01 08:12:44;;;;;;;62.50;58.63;;;;;;;31.25;37.04;99595.48;1670803;85;25741;-63
2021/08/01 08:15:12;;;;;;;61.45;58.23;;;;;;;31.05;37.18;99605.74;1670900;85;25689;-63
2021/08/01 08:17:39;;;;;;;60.60;57.37;;;;;;;30.86;37.02;99606.34;1651839;85;27399;-63
2021/08/01 08:20:09;;;;;;;60.80;57.50;;;;;;;30.68;36.47;99604.34;1670783;85;26124;-63
2021/08/01 08:22:36;;;;;;;61.40;58.10;;;;;;;30.51;36.53;99606.66;1670828;85;25867;-63
2021/08/01 08:25:08;;;;;;;62.90;59.50;;;;;;;30.27;36.73;99613.37;1651299;85;26198;-63
2021/08/01 08:27:36;;;;;;;62.17;58.42;;;;;;;29.91;36.45;99616.84;1670999;85;25804;-63
2021/08/01 08:30:06;;;;;;;62.33;58.83;;;;;;;29.59;36.95;99616.83;1670773;85;27315;-63
2021/08/01 08:32:35;;;;;;;62.45;59.05;;;;;;;29.27;36.61;99623.61;1651433;85;25976;-63
2021/08/01 08:35:03;;;;;;;;;;;;;;;28.87;37.07;99616.61;1673323;85;25668;-63
2021/08/01 08:37:31;;;;;;;64.67;61.08;;;;;;;28.53;37.70;99613.19;1670928;85;25717;-63
2021/08/01 08:39:57;;;;;;;62.85;59.20;;;;;;;28.27;38.52;99605.52;1670867;85;25758;-63
2021/08/01 08:42:27;;;;;;;63.50;59.90;;;;;;;28.08;39.23;99605.31;1670826;85;28090;-63
2021/08/01 08:44:54;;;;;;;65.50;61.13;;;;;;;27.83;38.99;99603.91;1670750;85;25734;-63
2021/08/01 08:47:26;;;;;;;64.75;60.88;;;;;;;27.57;39.35;99601.88;1646748;85;25737;-63
2021/08/01 08:49:57;;;;;;;64.50;60.98;;;;;;;27.41;39.46;99598.41;1670748;85;27362;-63
2021/08/01 08:52:27;;;;;;;63.92;60.08;;;;;;;27.27;39.88;99599.58;1670861;85;25768;-63
2021/08/01 08:54:59;;;;;;;63.70;60.17;;;;;;;27.15;40.46;99606.03;1645205;85;27251;-63
2021/08/01 08:57:38;;;;;;;64.90;61.25;;;;;;;27.00;40.32;99609.03;1670683;85;25800;-63
2021/08/01 09:00:09;;;;;;;65.28;61.70;;;;;;;26.81;40.75;99612.89;1670913;85;25787;-63
2021/08/01 09:02:39;;;;;;;64.82;60.75;;;;;;;26.61;40.89;99609.42;1670744;85;26352;-63
2021/08/01 09:05:07;;;;;;;64.00;60.60;;;;;;;26.40;40.94;99602.44;1671150;85;26370;-63
2021/08/01 09:07:36;;;;;;;64.03;60.40;;;;;;;26.24;40.89;99610.16;1651425;85;27304;-63
2021/08/01 09:10:04;;;;;;;63.68;59.75;;;;;;;26.11;41.01;99603.13;1651421;85;25807;-63
2021/08/01 09:12:30;;;;;;;64.20;60.80;;;;;;;26.09;41.39;99594.48;1629223;85;25790;-63
2021/08/01 09:15:21;;;;;;;64.15;60.75;;;;;;;26.12;41.71;99585.89;1670976;85;25710;-62
2021/08/01 09:17:48;;;;;;;64.55;60.90;;;;;;;26.28;42.42;99572.81;1670816;85;26063;-62
2021/08/01 09:20:31;;;;;;;66.07;62.50;;;;;;;26.62;42.16;99581.87;1670931;85;27324;-63
2021/08/01 09:23:06;;;;;;;64.77;61.18;;;;;;;27.02;42.10;99579.64;1670948;85;25872;-63
2021/08/01 09:25:40;;;;;;;65.42;61.68;;;;;;;27.52;41.50;99569.72;1671005;85;25798;-62
2021/08/01 09:28:18;;;;;;;63.55;60.00;;;;;;;27.83;40.52;99567.79;1670783;85;25681;-63
2021/08/01 09:31:02;;;;;;;62.48;59.08;;;;;;;27.91;39.31;99567.11;1670987;85;25653;-63
2021/08/01 09:33:42;;;;;;;62.05;58.65;;;;;;;27.72;39.00;99568.90;1670676;85;27789;-62
2021/08/01 09:36:25;;;;;;;62.45;58.95;;;;;;;27.61;38.80;99578.78;1670544;85;25832;-62
2021/08/01 09:38:58;;;;;;;63.08;59.60;;;;;;;27.53;38.69;99569.88;1671035;85;25725;-62
2021/08/01 09:41:37;;;;;;;63.38;60.03;;;;;;;27.68;39.11;99567.45;1670873;85;25757;-62
2021/08/01 09:44:07;;;;;;;63.38;59.75;;;;;;;27.99;38.79;99562.12;1671131;85;25715;-63
2021/08/01 09:46:45;;;;;;;63.95;60.15;;;;;;;28.39;38.46;99561.61;1670967;85;27991;-62
2021/08/01 09:49:24;;;;;;;64.35;60.90;;;;;;;29.20;38.41;99569.55;1669918;85;25862;-62
2021/08/01 09:51:54;;;;;;;61.20;57.58;;;;;;;29.91;36.48;99568.06;1670507;85;25764;-62
2021/08/01 09:54:27;;;;;;;62.70;59.10;;;;;;;30.22;35.59;99558.21;1670769;85;27257;-62
2021/08/01 09:56:59;;;;;;;61.88;58.40;;;;;;;30.41;35.25;99552.69;1670975;85;25736;-62
2021/08/01 09:59:32;;;;;;;60.98;57.83;;;;;;;30.75;35.59;99543.26;1670649;85;26779;-62
2021/08/01 10:02:02;;;;;;;61.35;57.75;;;;;;;30.95;35.20;99541.38;1671117;85;25648;-62
2021/08/01 10:04:37;;;;;;;61.77;58.55;;;;;;;31.17;35.07;99545.38;1655051;86;25689;-62
2021/08/01 10:07:15;;;;;;;59.83;56.58;;;;;;;31.31;34.45;99539.74;1651448;85;26254;-63
2021/08/01 10:09:44;;;;;;;61.55;58.15;;;;;;;31.22;34.33;99542.58;1655043;86;25775;-63
2021/08/01 10:12:12;;;;;;;31.68;29.72;;;;;;;31.07;33.97;99536.87;1646627;85;27203;-63
2021/08/01 10:14:42;;;;;;;4.83;2.58;;;;;;;30.73;33.83;99536.75;1654887;86;25809;-63
2021/08/01 10:17:09;;;;;;;2.75;2.40;;;;;;;30.38;33.57;99539.06;1652032;85;25675;-62
2021/08/01 10:19:37;;;;;;;6.33;2.70;;;;;;;29.75;33.48;99540.58;1654997;86;26344;-62
2021/08/01 10:22:06;;;;;;;5.95;2.47;;;;;;;29.28;34.47;99538.05;1672357;85;25712;-62
2021/08/01 10:24:45;;;;;;;3.40;2.35;;;;;;;28.98;35.38;99536.13;1655178;86;29823;-62
2021/08/01 10:27:16;;;;;;;4.67;2.40;;;;;;;28.76;35.98;99530.56;1649937;85;25823;-62
2021/08/01 10:30:06;;;;;;;5.15;2.30;;;;;;;28.49;36.35;99527.72;1655020;86;25679;-62
2021/08/01 10:32:36;;;;;;;5.05;2.25;;;;;;;28.26;36.88;99520.55;1672315;85;25797;-63
2021/08/01 10:35:08;;;;;;;5.17;2.50;;;;;;;27.92;36.63;99526.23;1655016;86;25751;-62
2021/08/01 10:37:51;;;;;;;5.70;2.60;;;;;;;27.67;36.84;99516.68;1672384;85;27422;-62
2021/08/01 10:40:22;;;;;;;57.33;54.27;;;;;;;27.50;37.43;99513.86;1655051;86;25751;-62
2021/08/01 10:42:53;;;;;;;4.78;2.40;;;;;;;27.34;37.98;99509.93;1672321;85;25801;-62
2021/08/01 10:45:21;;;;;;;10.13;2.58;;;;;;;27.23;38.28;99510.86;1654973;86;25764;-62
2021/08/01 10:47:53;;;;;;;5.72;2.55;;;;;;;27.10;38.69;99509.43;1672407;85;26001;-62
2021/08/01 10:50:27;;;;;;;4.15;2.75;;;;;;;26.98;38.88;99506.80;1654945;86;28029;-62
2021/08/01 10:53:22;;;;;;;3.02;2.62;;;;;;;26.88;39.39;99506.50;1672353;85;25718;-62
2021/08/01 10:56:08;;;;;;;7.40;3.70;;;;;;;26.78;39.66;99505.60;1654997;86;25811;-63
2021/08/01 10:58:36;;;;;;;7.42;4.45;;;;;;;26.64;39.67;99506.75;1672428;85;25749;-63
2021/08/01 11:01:06;;;;;;;5.90;4.47;;;;;;;26.55;40.11;99501.05;1655213;86;25715;-62
2021/08/01 11:03:42;;;;;;;7.08;2.70;;;;;;;26.47;39.95;99490.73;1659977;83;27374;-63
2021/08/01 11:06:39;;;;;;;5.60;2.20;;;;;;;26.40;40.06;99489.55;1684100;85;25720;-62
2021/08/01 11:09:12;;;;;;;64.70;60.95;;;;;;;26.38;40.51;99485.05;1655340;84;25736;-62
2021/08/01 11:11:39;;;;;;;63.08;59.83;;;;;;;26.39;40.59;99478.31;1684033;85;25743;-62
2021/08/01 11:14:22;;;;;;;63.00;59.70;;;;;;;26.46;41.21;99476.72;1655736;86;26370;-62
2021/08/01 11:16:49;;;;;;;64.22;60.17;;;;;;;26.57;41.16;99473.65;1605241;87;27524;-62
2021/08/01 11:19:36;;;;;;;63.58;60.03;;;;;;;26.68;40.70;99463.69;1598275;89;25839;-62
2021/08/01 11:22:04;;;;;;;66.35;62.38;;;;;;;26.73;40.35;99460.37;1598339;89;25799;-62
2021/08/01 11:24:31;;;;;;;64.12;60.67;;;;;;;26.77;39.89;99466.59;1598308;89;25851;-62
2021/08/01 11:27:11;;;;;;;64.47;60.80;;;;;;;26.80;39.98;99461.55;1598382;89;25827;-62
2021/08/01 11:30:02;;;;;;;62.88;59.48;;;;;;;26.81;40.00;99454.00;1576659;89;27500;-63
2021/08/01 11:32:29;;;;;;;64.22;60.83;;;;;;;26.81;40.25;99454.00;1598238;89;26037;-63
2021/08/01 11:35:17;;;;;;;64.15;60.75;;;;;;;26.83;40.23;99453.74;1598457;89;25867;-63